Time;durP1;ratioP1;P1;durP2;ratioP2;P2;SDS_P1;SDS_P2;PMS_P1;PMS_P2;Temp;Humidity;BMP_temperature;BMP_pressure;BME280_temperature;BME280_humidity;BME280_pressure;Samples;Min_cycle;Max_cycle;Signal;HPM_P1;HPM_P2
2021/06/09 00:01:31;;;;;;;12.78;9.25;;;;;;;12.82;65.56;97400.98;1763969;79;25802;-86
2021/06/09 00:03:58;;;;;;;10.82;8.48;;;;;;;12.79;65.54;97398.75;1775144;79;25696;-88
2021/06/09 00:06:26;;;;;;;12.98;8.85;;;;;;;12.74;65.55;97399.93;1793127;79;27421;-89
2021/06/09 00:08:52;;;;;;;12.78;8.38;;;;;;;12.71;65.61;97390.89;1719272;82;25881;-88
2021/06/09 00:11:19;;;;;;;13.68;8.83;;;;;;;12.70;65.61;97394.66;1764257;81;25747;-88
2021/06/09 00:13:45;;;;;;;12.53;9.15;;;;;;;12.63;65.67;97397.45;1764263;81;25529;-89
2021/06/09 00:16:16;;;;;;;11.57;9.18;;;;;;;12.60;65.78;97391.95;1764285;79;25683;-88
2021/06/09 00:18:43;;;;;;;11.68;8.00;;;;;;;12.56;65.76;97392.08;1769009;79;27513;-89
2021/06/09 00:21:11;;;;;;;11.70;8.15;;;;;;;12.53;65.78;97393.91;1727045;83;25815;-87
2021/06/09 00:23:38;;;;;;;10.13;8.20;;;;;;;12.48;65.77;97391.03;1767415;79;25789;-88
2021/06/09 00:26:05;;;;;;;9.83;8.10;;;;;;;12.43;65.90;97390.89;1746077;80;25957;-89
2021/06/09 00:28:34;;;;;;;9.95;8.10;;;;;;;12.40;65.92;97391.33;1764229;80;25289;-88
2021/06/09 00:31:03;;;;;;;10.55;8.68;;;;;;;12.38;66.03;97394.78;1753882;80;27601;-87
2021/06/09 00:33:30;;;;;;;14.03;8.53;;;;;;;12.34;66.06;97394.08;1753921;80;25769;-87
2021/06/09 00:35:58;;;;;;;12.03;7.95;;;;;;;12.27;66.16;97394.16;1743167;79;25739;-87
2021/06/09 00:38:27;;;;;;;13.20;9.25;;;;;;;12.24;66.25;97397.30;1763939;80;25914;-89
2021/06/09 00:40:55;;;;;;;12.15;9.33;;;;;;;12.18;66.32;97399.55;1763521;80;25770;-87
2021/06/09 00:43:27;;;;;;;10.55;9.18;;;;;;;12.15;66.45;97407.59;1764347;80;27576;-88
2021/06/09 00:46:00;;;;;;;11.50;8.90;;;;;;;12.14;66.48;97405.09;1764357;80;26351;-89
2021/06/09 00:48:30;;;;;;;12.60;8.45;;;;;;;12.06;66.46;97413.50;1764341;80;25703;-88
2021/06/09 00:51:01;;;;;;;13.95;8.85;;;;;;;12.02;66.54;97409.05;1764276;80;26276;-88
2021/06/09 00:53:28;;;;;;;10.32;8.55;;;;;;;11.97;66.63;97408.86;1749542;81;26306;-88
2021/06/09 00:56:09;;;;;;;12.05;9.15;;;;;;;11.93;66.69;97400.08;1758075;80;27372;-88
2021/06/09 00:58:37;;;;;;;11.10;9.00;;;;;;;11.88;66.71;97404.26;1764552;80;25707;-88
2021/06/09 01:01:06;;;;;;;11.83;9.25;;;;;;;11.79;66.80;97410.98;1742774;79;25778;-87
2021/06/09 01:03:34;;;;;;;14.03;9.65;;;;;;;11.72;66.99;97408.80;1776932;79;25664;-87
2021/06/09 01:06:02;;;;;;;15.38;9.33;;;;;;;11.60;67.00;97406.49;1727694;82;25717;-84
2021/06/09 01:08:36;;;;;;;12.60;9.93;;;;;;;11.59;67.28;97402.16;1717769;83;27541;-85
2021/06/09 01:11:06;;;;;;;13.60;8.78;;;;;;;11.49;67.25;97408.53;1763665;80;25849;-87
2021/06/09 01:13:32;;;;;;;12.05;8.73;;;;;;;11.49;67.45;97403.95;1775177;79;25814;-88
2021/06/09 01:15:59;;;;;;;11.97;8.80;;;;;;;11.50;67.47;97407.49;1699118;83;25803;-88
2021/06/09 01:18:27;;;;;;;13.10;9.55;;;;;;;11.51;67.56;97402.39;1696523;83;25856;-88
2021/06/09 01:20:56;;;;;;;12.35;9.33;;;;;;;11.54;67.60;97407.38;1695326;82;27238;-88
2021/06/09 01:23:22;;;;;;;10.15;9.08;;;;;;;11.49;67.68;97405.83;1694684;83;25751;-88
2021/06/09 01:25:50;;;;;;;12.43;9.30;;;;;;;11.43;67.78;97408.06;1702168;81;25832;-89
2021/06/09 01:28:17;;;;;;;13.70;9.13;;;;;;;11.40;67.94;97403.09;1727605;82;25678;-89
2021/06/09 01:30:46;;;;;;;13.35;9.08;;;;;;;11.23;67.87;97405.45;1773238;78;25766;-87
2021/06/09 01:33:15;;;;;;;13.43;8.55;;;;;;;11.23;68.16;97397.89;1777447;79;27402;-88
2021/06/09 01:35:43;;;;;;;11.33;8.80;;;;;;;11.27;68.16;97403.98;1743481;80;25746;-86
2021/06/09 01:38:10;;;;;;;13.00;8.48;;;;;;;11.28;68.16;97399.41;1764187;80;25837;-86
2021/06/09 01:40:37;;;;;;;10.43;8.05;;;;;;;11.28;68.19;97402.11;1763488;80;25975;-84
2021/06/09 01:43:04;;;;;;;10.82;8.30;;;;;;;11.30;68.22;97397.33;1743356;80;25750;-87
2021/06/09 01:45:35;;;;;;;11.80;8.35;;;;;;;11.30;68.28;97393.27;1761604;79;28079;-87
2021/06/09 01:48:03;;;;;;;9.18;8.15;;;;;;;11.27;68.30;97406.69;1751359;79;25964;-86
2021/06/09 01:50:31;;;;;;;11.65;8.83;;;;;;;11.26;68.39;97400.14;1751573;79;25826;-88
2021/06/09 01:53:02;;;;;;;9.75;8.58;;;;;;;11.25;68.40;97402.02;1753445;79;26267;-89
2021/06/09 01:55:27;;;;;;;13.22;8.98;;;;;;;11.25;68.43;97401.19;1749360;80;25771;-86
2021/06/09 01:57:54;;;;;;;10.25;8.33;;;;;;;11.23;68.38;97401.95;1761687;80;28155;-89
2021/06/09 02:00:26;;;;;;;10.20;8.75;;;;;;;11.19;68.49;97398.32;1761264;80;25765;-85
2021/06/09 02:02:58;;;;;;;10.80;8.68;;;;;;;11.13;68.50;97393.76;1740653;79;25833;-88
2021/06/09 02:05:23;;;;;;;10.38;8.65;;;;;;;11.13;68.63;97405.91;1761791;80;25782;-89
2021/06/09 02:07:50;;;;;;;10.60;9.28;;;;;;;11.13;68.70;97398.33;1761807;79;25734;-89
2021/06/09 02:10:19;;;;;;;10.58;8.98;;;;;;;11.11;68.75;97400.41;1761671;79;28347;-89
2021/06/09 02:12:51;;;;;;;9.65;8.65;;;;;;;11.13;68.87;97402.38;1739743;79;25771;-89
2021/06/09 02:15:21;;;;;;;15.60;9.78;;;;;;;11.13;68.84;97408.62;1757463;80;25690;-88
2021/06/09 02:17:56;;;;;;;13.93;8.95;;;;;;;11.11;68.86;97403.12;1761769;79;25789;-85
2021/06/09 02:20:20;;;;;;;12.75;8.85;;;;;;;11.10;68.89;97400.97;1756572;79;25691;-85
2021/06/09 02:22:47;;;;;;;13.85;9.98;;;;;;;11.06;68.98;97399.73;1744997;80;28128;-89
2021/06/09 02:25:14;;;;;;;11.57;8.90;;;;;;;11.04;69.05;97403.16;1761443;79;25894;-86
2021/06/09 02:27:41;;;;;;;14.35;9.38;;;;;;;11.05;68.99;97399.41;1761610;79;25766;-87
2021/06/09 02:30:09;;;;;;;13.18;8.95;;;;;;;11.02;68.99;97398.48;1741358;79;25760;-85
2021/06/09 02:32:36;;;;;;;11.12;9.20;;;;;;;10.99;69.03;97401.61;1761800;79;25778;-87
2021/06/09 02:35:08;;;;;;;11.57;8.50;;;;;;;10.98;69.07;97399.15;1743458;79;27357;-88
2021/06/09 02:37:35;;;;;;;12.88;8.40;;;;;;;10.98;69.11;97394.58;1736193;80;35277;-85
2021/06/09 02:40:02;;;;;;;11.28;8.98;;;;;;;10.96;69.08;97391.25;1752633;79;25825;-88
2021/06/09 02:42:29;;;;;;;12.78;9.38;;;;;;;10.96;69.15;97396.66;1777502;80;25782;-86
2021/06/09 02:44:56;;;;;;;11.20;8.80;;;;;;;10.97;69.24;97394.27;1797543;78;26374;-88
2021/06/09 02:47:22;;;;;;;10.58;8.85;;;;;;;10.93;69.20;97393.02;1807408;79;27402;-90
2021/06/09 02:49:51;;;;;;;13.45;9.03;;;;;;;10.86;69.33;97396.28;1799754;78;26065;-87
2021/06/09 02:52:28;;;;;;;11.43;9.15;;;;;;;10.79;69.51;97391.41;1777120;80;25905;-88
2021/06/09 02:55:11;;;;;;;16.70;9.88;;;;;;;10.73;69.61;97394.45;1777490;78;25721;-88
2021/06/09 02:57:49;;;;;;;13.93;9.33;;;;;;;10.77;69.77;97396.19;1777832;78;25714;-89
2021/06/09 03:00:20;;;;;;;12.35;9.10;;;;;;;10.80;69.86;97393.07;1774692;78;27606;-88
2021/06/09 03:03:19;;;;;;;14.43;9.05;;;;;;;10.81;69.85;97392.03;1777320;80;25837;-89
2021/06/09 03:05:57;;;;;;;10.03;8.73;;;;;;;10.80;69.82;97391.72;1777649;80;25780;-89
2021/06/09 03:08:38;;;;;;;11.40;8.50;;;;;;;10.79;69.92;97400.86;1797758;79;25734;-89
2021/06/09 03:11:23;;;;;;;11.80;9.25;;;;;;;10.78;69.94;97394.63;1777482;78;25770;-88
2021/06/09 03:15:09;;;;;;;10.98;8.73;;;;;;;10.80;69.91;97394.42;1777233;80;27378;-87
2021/06/09 03:17:02;;;;;;;9.78;8.78;;;;;;;10.81;70.02;97387.98;1773559;80;25750;-88
2021/06/09 03:19:39;;;;;;;15.00;9.05;;;;;;;10.81;70.11;97392.86;1777805;80;26098;-87
2021/06/09 03:22:26;;;;;;;11.85;9.15;;;;;;;10.85;70.20;97393.80;1777618;80;25758;-87
2021/06/09 03:24:56;;;;;;;16.20;10.98;;;;;;;10.87;70.20;97395.22;1777308;80;25750;-86
2021/06/09 03:27:37;;;;;;;23.47;11.22;;;;;;;10.88;70.29;97394.70;1777066;78;27421;-88
2021/06/09 03:30:08;;;;;;;17.02;11.78;;;;;;;10.91;70.37;97391.58;1776943;80;25721;-89
2021/06/09 03:32:43;;;;;;;15.75;10.43;;;;;;;10.98;70.45;97390.52;1777751;78;25705;-88
2021/06/09 03:35:24;;;;;;;18.70;11.25;;;;;;;11.04;70.56;97388.30;1777715;80;25838;-87
2021/06/09 03:37:55;;;;;;;16.55;11.50;;;;;;;11.06;70.56;97385.39;1774756;80;25892;-86
2021/06/09 03:40:31;;;;;;;12.65;9.30;;;;;;;11.12;70.63;97390.75;1776195;78;28238;-84
2021/06/09 03:43:08;;;;;;;15.10;10.65;;;;;;;11.15;70.70;97383.57;1757915;80;25870;-86
2021/06/09 03:45:48;;;;;;;16.97;10.88;;;;;;;11.16;70.73;97384.41;1795197;79;25728;-83
2021/06/09 03:48:18;;;;;;;14.55;10.55;;;;;;;11.22;70.84;97384.08;1788037;79;26008;-87
2021/06/09 03:50:48;;;;;;;16.93;10.82;;;;;;;11.29;70.91;97387.04;1805803;79;25683;-88
2021/06/09 03:53:15;;;;;;;16.17;10.40;;;;;;;11.36;70.87;97387.81;1777607;80;27483;-87
2021/06/09 03:55:45;;;;;;;14.90;9.88;;;;;;;11.42;70.84;97380.20;1777299;80;25777;-86
2021/06/09 03:58:15;;;;;;;15.63;10.63;;;;;;;11.46;70.81;97383.31;1777264;80;26455;-85
2021/06/09 04:00:43;;;;;;;15.18;10.60;;;;;;;11.50;70.84;97381.81;1777398;80;26651;-86
2021/06/09 04:03:12;;;;;;;19.25;10.25;;;;;;;11.58;70.84;97388.86;1777376;80;25789;-83
2021/06/09 04:05:42;;;;;;;18.17;11.50;;;;;;;11.62;70.84;97392.23;1777542;80;27438;-87
2021/06/09 04:08:11;;;;;;;16.25;11.00;;;;;;;11.67;70.89;97392.42;1777984;80;25665;-84
2021/06/09 04:10:41;;;;;;;21.62;11.63;;;;;;;11.72;70.80;97393.93;1776460;80;25716;-87
2021/06/09 04:13:08;;;;;;;16.25;11.22;;;;;;;11.77;70.86;97390.61;1777439;80;26582;-88
2021/06/09 04:15:35;;;;;;;18.77;10.72;;;;;;;11.85;70.87;97398.45;1777230;80;25675;-85
2021/06/09 04:18:02;;;;;;;16.97;11.97;;;;;;;11.92;70.91;97391.12;1776627;78;27431;-85
2021/06/09 04:20:31;;;;;;;14.73;12.35;;;;;;;11.99;70.81;97391.06;1777510;80;25803;-85
2021/06/09 04:22:58;;;;;;;16.90;12.78;;;;;;;12.06;70.76;97391.86;1777515;80;25634;-85
2021/06/09 04:25:25;;;;;;;18.07;12.18;;;;;;;12.11;70.72;97393.36;1785487;79;26232;-88
2021/06/09 04:27:52;;;;;;;23.42;12.70;;;;;;;12.18;70.78;97391.44;1723715;81;25813;-87
2021/06/09 04:30:22;;;;;;;23.15;15.28;;;;;;;12.25;70.80;97399.79;1770917;79;27434;-86
2021/06/09 04:32:56;;;;;;;26.60;15.90;;;;;;;12.33;70.69;97393.78;1770738;79;25715;-86
2021/06/09 04:35:27;;;;;;;22.60;14.25;;;;;;;12.40;70.64;97393.20;1770392;80;25252;-85
2021/06/09 04:37:54;;;;;;;26.77;12.80;;;;;;;12.42;70.96;97398.70;1757307;79;26356;-87
2021/06/09 04:40:24;;;;;;;16.23;11.90;;;;;;;12.43;71.00;97393.59;1755508;79;25776;-87
2021/06/09 04:42:54;;;;;;;15.45;12.05;;;;;;;12.50;71.01;97395.70;1764536;80;28483;-87
2021/06/09 04:45:22;;;;;;;15.50;11.40;;;;;;;12.54;71.12;97392.86;1766405;79;25655;-88
2021/06/09 04:47:49;;;;;;;18.10;11.70;;;;;;;12.59;70.87;97398.41;1759536;79;25749;-89
2021/06/09 04:50:20;;;;;;;16.60;12.50;;;;;;;12.66;70.97;97401.06;1764415;80;25833;-88
2021/06/09 04:52:48;;;;;;;20.50;12.37;;;;;;;12.71;71.13;97402.56;1743354;79;25926;-88
2021/06/09 04:55:16;;;;;;;21.95;14.40;;;;;;;12.77;71.21;97399.49;1726920;81;27466;-87
2021/06/09 04:57:43;;;;;;;19.65;13.88;;;;;;;12.83;71.17;97394.51;1764202;79;25715;-87
2021/06/09 05:00:14;;;;;;;21.87;13.98;;;;;;;12.93;71.00;97393.45;1786323;79;25757;-88
2021/06/09 05:02:41;;;;;;;23.47;15.08;;;;;;;12.96;71.17;97391.12;1764188;80;26341;-87
2021/06/09 05:05:09;;;;;;;19.15;13.53;;;;;;;13.02;71.17;97389.41;1764370;80;25738;-87
2021/06/09 05:07:35;;;;;;;17.20;13.28;;;;;;;13.10;71.06;97385.02;1764099;80;27555;-86
2021/06/09 05:10:04;;;;;;;18.67;13.43;;;;;;;13.17;70.99;97391.73;1743258;79;25766;-86
2021/06/09 05:12:35;;;;;;;18.15;12.63;;;;;;;13.24;71.01;97381.13;1764152;80;25767;-83
2021/06/09 05:15:09;;;;;;;19.27;13.88;;;;;;;13.31;70.97;97383.20;1743211;79;25687;-85
2021/06/09 05:17:46;;;;;;;19.77;14.00;;;;;;;13.40;70.73;97382.91;1764131;80;25752;-84
2021/06/09 05:20:32;;;;;;;19.57;13.30;;;;;;;13.47;70.69;97391.23;1785992;79;27469;-86
2021/06/09 05:23:09;;;;;;;17.90;12.18;;;;;;;13.55;70.81;97386.00;1764634;80;25847;-86
2021/06/09 05:25:37;;;;;;;21.90;13.83;;;;;;;13.65;70.96;97393.05;1763827;80;25738;-85
2021/06/09 05:28:07;;;;;;;21.23;13.75;;;;;;;13.73;70.94;97394.09;1764113;79;25823;-85
2021/06/09 05:30:36;;;;;;;17.80;12.70;;;;;;;13.81;70.85;97399.18;1763120;79;25802;-86
2021/06/09 05:33:03;;;;;;;15.08;12.07;;;;;;;13.90;70.77;97399.14;1764313;79;27366;-85
2021/06/09 05:35:31;;;;;;;17.55;12.88;;;;;;;13.97;70.68;97395.81;1764221;79;26335;-83
2021/06/09 05:37:59;;;;;;;17.32;12.23;;;;;;;14.09;70.55;97388.22;1775791;79;25740;-85
2021/06/09 05:40:26;;;;;;;15.85;11.18;;;;;;;14.20;70.52;97392.30;1779844;79;26000;-87
2021/06/09 05:42:53;;;;;;;17.37;11.60;;;;;;;14.36;70.44;97398.93;1761961;80;26274;-85
2021/06/09 05:45:32;;;;;;;15.38;11.70;;;;;;;14.51;70.49;97395.22;1764557;79;27527;-86
2021/06/09 05:47:59;;;;;;;17.70;10.78;;;;;;;14.68;70.15;97396.70;1764455;79;25755;-85
2021/06/09 05:50:31;;;;;;;18.80;11.30;;;;;;;14.82;69.71;97394.57;1764724;79;25751;-84
2021/06/09 05:53:05;;;;;;;14.60;10.98;;;;;;;14.94;69.57;97393.48;1785215;79;25683;-84
2021/06/09 05:55:32;;;;;;;14.15;10.90;;;;;;;15.07;69.35;97395.12;1766682;79;25713;-84
2021/06/09 05:58:02;;;;;;;17.52;11.33;;;;;;;15.18;69.04;97395.62;1766709;80;28033;-84
2021/06/09 06:00:29;;;;;;;13.13;10.30;;;;;;;15.29;68.78;97398.83;1737041;79;25756;-85
2021/06/09 06:02:56;;;;;;;16.07;11.40;;;;;;;15.39;68.50;97396.31;1764476;80;26416;-84
2021/06/09 06:05:24;;;;;;;15.23;10.82;;;;;;;15.48;68.46;97398.10;1764172;80;26460;-84
2021/06/09 06:07:52;;;;;;;15.75;11.55;;;;;;;15.60;68.58;97398.08;1764748;80;25780;-85
2021/06/09 06:10:20;;;;;;;16.02;10.95;;;;;;;15.69;68.86;97407.00;1766098;79;27364;-84
2021/06/09 06:12:50;;;;;;;13.60;10.70;;;;;;;15.78;68.76;97396.53;1796038;79;25844;-84
2021/06/09 06:15:17;;;;;;;11.78;10.32;;;;;;;15.88;68.62;97395.35;1775417;79;25786;-86
2021/06/09 06:17:46;;;;;;;14.13;10.32;;;;;;;16.01;68.57;97402.37;1766742;80;25921;-84
2021/06/09 06:20:16;;;;;;;14.78;10.93;;;;;;;16.14;68.48;97400.17;1766296;81;25714;-83
2021/06/09 06:22:46;;;;;;;11.40;10.18;;;;;;;16.31;67.84;97399.33;1766334;80;28181;-84
2021/06/09 06:25:18;;;;;;;12.28;9.65;;;;;;;16.47;67.46;97391.69;1748819;80;26386;-81
2021/06/09 06:27:47;;;;;;;16.27;9.25;;;;;;;16.63;67.43;97390.89;1761942;79;25673;-84
2021/06/09 06:30:17;;;;;;;15.88;9.50;;;;;;;16.77;66.76;97390.83;1761809;80;26530;-84
2021/06/09 06:32:46;;;;;;;10.58;8.10;;;;;;;16.88;66.33;97396.70;1761643;79;25232;-82
2021/06/09 06:35:22;;;;;;;10.45;9.38;;;;;;;17.00;66.08;97386.22;1761844;81;28374;-82
2021/06/09 06:37:51;;;;;;;11.60;9.23;;;;;;;17.11;65.94;97384.73;1761698;81;26256;-83
2021/06/09 06:40:28;;;;;;;13.75;9.70;;;;;;;17.26;65.56;97388.20;1712194;83;25751;-83
2021/06/09 06:42:56;;;;;;;15.80;9.30;;;;;;;17.41;65.31;97391.09;1759892;81;25717;-81
2021/06/09 06:45:24;;;;;;;10.18;8.80;;;;;;;17.57;64.84;97387.46;1779064;79;25741;-82
2021/06/09 06:47:53;;;;;;;13.83;9.28;;;;;;;17.72;64.56;97388.20;1766537;79;28313;-82
2021/06/09 06:50:22;;;;;;;12.55;9.30;;;;;;;17.87;64.47;97391.64;1752349;81;26224;-84
2021/06/09 06:52:51;;;;;;;17.25;9.90;;;;;;;17.99;64.11;97390.36;1769233;80;25724;-82
2021/06/09 06:55:21;;;;;;;14.43;9.23;;;;;;;18.09;63.72;97389.66;1769141;80;25716;-83
2021/06/09 06:57:49;;;;;;;13.85;8.73;;;;;;;18.15;63.40;97386.41;1769334;80;26280;-83
2021/06/09 07:00:20;;;;;;;12.65;10.15;;;;;;;18.21;63.27;97390.31;1760435;81;28195;-82
2021/06/09 07:02:51;;;;;;;10.70;9.18;;;;;;;18.27;63.10;97385.70;1756719;80;25818;-82
2021/06/09 07:05:20;;;;;;;14.80;9.03;;;;;;;18.33;63.02;97390.95;1759695;81;26344;-82
2021/06/09 07:07:48;;;;;;;10.58;8.65;;;;;;;18.40;62.93;97384.43;1763746;79;25866;-83
2021/06/09 07:10:17;;;;;;;13.13;9.35;;;;;;;18.46;62.59;97383.40;1782843;78;26222;-81
2021/06/09 07:12:46;;;;;;;15.20;8.63;;;;;;;18.51;62.39;97380.69;1792495;79;27361;-82
2021/06/09 07:15:17;;;;;;;13.65;9.75;;;;;;;18.58;62.22;97384.06;1776852;79;25761;-83
2021/06/09 07:17:53;;;;;;;10.05;9.05;;;;;;;18.64;62.09;97387.09;1777486;80;25689;-82
2021/06/09 07:20:23;;;;;;;12.37;9.50;;;;;;;18.70;62.03;97388.25;1777448;79;26322;-82
2021/06/09 07:22:52;;;;;;;12.85;9.18;;;;;;;18.75;61.89;97386.08;1777582;79;25722;-82
2021/06/09 07:25:20;;;;;;;13.90;9.45;;;;;;;18.85;61.52;97386.13;1777739;79;28192;-83
2021/06/09 07:27:53;;;;;;;14.30;9.35;;;;;;;18.97;61.49;97392.22;1765121;79;25919;-82
2021/06/09 07:30:30;;;;;;;10.95;9.18;;;;;;;19.10;61.26;97384.63;1746931;79;25764;-86
2021/06/09 07:32:57;;;;;;;13.53;8.65;;;;;;;19.22;61.09;97381.13;1777654;79;25664;-80
2021/06/09 07:35:24;;;;;;;20.68;9.95;;;;;;;19.38;61.12;97385.58;1777670;79;25785;-81
2021/06/09 07:37:55;;;;;;;13.40;9.83;;;;;;;19.48;61.00;97389.72;1777825;80;28720;-80
2021/06/09 07:40:26;;;;;;;13.40;9.60;;;;;;;19.55;60.64;97394.45;1777661;80;25711;-81
2021/06/09 07:42:58;;;;;;;12.10;9.45;;;;;;;19.63;60.67;97389.80;1776825;79;25665;-80
2021/06/09 07:45:27;;;;;;;13.45;9.88;;;;;;;19.73;60.58;97385.72;1776445;80;25799;-80
2021/06/09 07:47:56;;;;;;;11.63;9.05;;;;;;;19.90;60.41;97388.23;1777537;79;25788;-80
2021/06/09 07:50:31;;;;;;;12.80;8.70;;;;;;;20.07;60.44;97383.85;1777739;79;28243;-80
2021/06/09 07:53:06;;;;;;;12.82;8.73;;;;;;;20.27;60.25;97386.63;1782626;78;25752;-81
2021/06/09 07:55:33;;;;;;;11.65;8.80;;;;;;;20.47;60.08;97383.91;1781653;79;25660;-86
2021/06/09 07:58:02;;;;;;;14.83;8.40;;;;;;;20.78;59.90;97379.73;1772533;79;25725;-81
2021/06/09 08:00:29;;;;;;;9.35;8.38;;;;;;;21.15;59.50;97387.05;1728286;82;25878;-83
2021/06/09 08:02:57;;;;;;;9.68;7.55;;;;;;;21.61;58.94;97378.68;1788794;79;27519;-81
2021/06/09 08:05:26;;;;;;;10.48;8.08;;;;;;;22.13;58.36;97381.39;1769378;81;25237;-80
2021/06/09 08:07:53;;;;;;;9.40;8.03;;;;;;;22.62;57.79;97374.39;1747773;80;25745;-80
2021/06/09 08:10:22;;;;;;;19.95;9.25;;;;;;;22.95;57.38;97361.69;1736840;80;25789;-81
2021/06/09 08:12:53;;;;;;;9.58;7.42;;;;;;;23.42;57.09;97379.34;1756887;81;26302;-87
2021/06/09 08:15:20;;;;;;;9.60;7.40;;;;;;;23.80;56.02;97375.54;1747527;80;27604;-80
2021/06/09 08:17:49;;;;;;;8.88;7.15;;;;;;;24.16;55.02;97379.15;1769136;80;25717;-81
2021/06/09 08:20:20;;;;;;;11.45;7.90;;;;;;;24.38;54.50;97376.65;1768674;80;25745;-82
2021/06/09 08:22:48;;;;;;;11.75;7.47;;;;;;;24.60;54.14;97379.58;1769245;80;26627;-82
2021/06/09 08:25:19;;;;;;;11.43;7.42;;;;;;;24.85;53.51;97371.97;1747462;80;25732;-82
2021/06/09 08:27:47;;;;;;;16.87;8.45;;;;;;;25.15;52.90;97372.79;1781736;79;27417;-80
2021/06/09 08:30:16;;;;;;;13.88;7.40;;;;;;;24.93;51.76;97378.19;1803543;79;25817;-81
2021/06/09 08:32:43;;;;;;;19.40;8.43;;;;;;;24.85;52.04;97371.97;1777656;79;25707;-83
2021/06/09 08:35:10;;;;;;;9.45;7.50;;;;;;;25.19;51.56;97369.69;1798522;78;25744;-83
2021/06/09 08:37:37;;;;;;;7.97;6.53;;;;;;;25.44;51.22;97373.88;1788208;78;25755;-81
2021/06/09 08:40:10;;;;;;;11.85;7.12;;;;;;;25.56;50.51;97371.98;1788024;79;27421;-91
2021/06/09 08:42:41;;;;;;;7.80;6.37;;;;;;;25.79;50.23;97375.91;1766393;80;25735;-84
2021/06/09 08:45:12;;;;;;;9.88;6.40;;;;;;;26.14;49.75;97372.90;1761080;80;26476;-82
2021/06/09 08:47:40;;;;;;;8.65;6.47;;;;;;;26.34;49.07;97372.18;1790418;79;25721;-82
2021/06/09 08:50:11;;;;;;;8.80;6.60;;;;;;;26.32;48.42;97376.67;1760151;80;25746;-82
2021/06/09 08:52:49;;;;;;;23.38;8.30;;;;;;;26.05;48.19;97380.88;1757791;80;27477;-82
2021/06/09 08:55:17;;;;;;;11.00;6.85;;;;;;;26.25;48.31;97381.77;1767010;80;25656;-83
2021/06/09 08:57:44;;;;;;;9.30;6.45;;;;;;;26.52;48.05;97376.16;1745013;81;25774;-82
2021/06/09 09:00:14;;;;;;;9.03;6.53;;;;;;;26.46;47.35;97376.02;1760237;80;25751;-81
2021/06/09 09:02:41;;;;;;;10.60;7.53;;;;;;;26.42;47.06;97376.98;1785843;79;26318;-82
2021/06/09 09:05:10;;;;;;;9.38;7.25;;;;;;;26.17;46.68;97380.58;1775682;79;28172;-84
2021/06/09 09:07:38;;;;;;;9.58;6.72;;;;;;;26.13;46.58;97375.41;1749887;80;25714;-80
2021/06/09 09:10:08;;;;;;;6.53;5.20;;;;;;;26.00;46.36;97379.03;1755144;80;25758;-83
2021/06/09 09:12:36;;;;;;;7.92;4.53;;;;;;;25.90;45.72;97385.36;1756399;80;25692;-81
2021/06/09 09:15:06;;;;;;;5.97;4.47;;;;;;;25.57;44.35;97383.29;1756598;81;25670;-81
2021/06/09 09:17:51;;;;;;;12.50;4.22;;;;;;;25.30;45.30;97386.31;1766753;80;27373;-84
2021/06/09 09:20:26;;;;;;;8.13;4.83;;;;;;;25.41;45.08;97389.69;1766672;80;25895;-84
2021/06/09 09:22:56;;;;;;;11.40;5.03;;;;;;;25.27;44.95;97385.53;1765567;80;25700;-84
2021/06/09 09:25:22;;;;;;;7.78;4.50;;;;;;;25.10;45.45;97389.48;1766757;80;26621;-84
2021/06/09 09:27:59;;;;;;;7.65;5.08;;;;;;;25.37;45.37;97388.66;1766828;80;25217;-81
2021/06/09 09:30:30;;;;;;;8.25;4.90;;;;;;;25.65;45.75;97388.94;1794695;79;27447;-83
2021/06/09 09:33:07;;;;;;;6.85;5.62;;;;;;;26.24;45.69;97393.15;1793903;79;25755;-80
2021/06/09 09:35:43;;;;;;;5.92;5.15;;;;;;;26.39;44.97;97395.03;1766767;80;25776;-81
2021/06/09 09:38:31;;;;;;;8.93;5.45;;;;;;;26.78;43.52;97398.48;1766777;81;25743;-80
2021/06/09 09:41:07;;;;;;;10.03;5.90;;;;;;;27.06;43.50;97394.99;1766477;80;25775;-80
2021/06/09 09:43:52;;;;;;;6.12;5.35;;;;;;;27.01;43.16;97394.33;1766564;79;27413;-83
2021/06/09 09:46:33;;;;;;;6.78;6.10;;;;;;;26.59;42.55;97387.34;1700030;80;25743;-81
2021/06/09 09:49:09;;;;;;;7.60;6.15;;;;;;;26.29;43.28;97388.36;1698025;80;25857;-81
2021/06/09 09:51:53;;;;;;;10.82;6.60;;;;;;;26.32;43.55;97381.39;1729363;80;25733;-82
2021/06/09 09:54:32;;;;;;;7.10;6.08;;;;;;;26.21;43.37;97387.67;1709028;80;25834;-81
2021/06/09 09:57:02;;;;;;;12.28;6.15;;;;;;;26.10;43.48;97385.70;1697996;80;27466;-81
2021/06/09 09:59:30;;;;;;;12.88;6.12;;;;;;;25.91;43.77;97386.44;1699593;80;25910;-83
2021/06/09 10:02:01;;;;;;;23.35;8.58;;;;;;;26.19;44.04;97381.09;1737805;80;25725;-81
2021/06/09 10:04:33;;;;;;;9.85;7.45;;;;;;;26.18;43.81;97384.17;1737895;81;26576;-80
2021/06/09 10:06:59;;;;;;;10.18;6.67;;;;;;;25.98;43.79;97384.05;1724772;80;25802;-81
2021/06/09 10:09:47;;;;;;;10.68;6.75;;;;;;;25.67;44.20;97383.09;1723838;80;27750;-81
2021/06/09 10:12:17;;;;;;;8.80;6.65;;;;;;;25.34;44.12;97385.97;1721923;80;25875;-81
2021/06/09 10:14:47;;;;;;;10.82;6.42;;;;;;;25.07;44.13;97391.46;1697998;80;25966;-82
2021/06/09 10:17:18;;;;;;;11.08;6.95;;;;;;;24.85;44.57;97386.59;1711849;80;26371;-81
2021/06/09 10:20:05;;;;;;;7.97;6.57;;;;;;;24.88;44.72;97381.00;1709562;82;25787;-81
2021/06/09 10:22:35;;;;;;;8.38;6.30;;;;;;;24.76;44.83;97384.25;1735776;80;28321;-81
2021/06/09 10:25:08;;;;;;;11.75;7.35;;;;;;;24.68;44.55;97385.78;1766688;80;25722;-86
2021/06/09 10:27:37;;;;;;;;;;;;;;;24.88;44.97;97378.24;1781459;79;25612;-81
2021/06/09 10:30:19;;;;;;;10.15;7.47;;;;;;;25.17;43.98;97373.31;1774829;79;25920;-83
2021/06/09 10:32:56;;;;;;;9.15;7.67;;;;;;;25.45;44.81;97374.96;1766821;80;25730;-83
2021/06/09 10:35:26;;;;;;;12.60;7.50;;;;;;;25.84;44.55;97381.91;1766628;80;27371;-82
2021/06/09 10:37:54;;;;;;;12.47;7.78;;;;;;;26.25;44.68;97375.42;1766327;79;25904;-84
2021/06/09 10:40:26;;;;;;;10.32;7.65;;;;;;;26.48;44.18;97370.17;1764945;79;25742;-86
2021/06/09 10:42:55;;;;;;;;;;;;;;;26.44;44.07;97376.11;1740692;79;25715;-85
2021/06/09 10:45:23;;;;;;;8.88;5.85;;;;;;;26.27;43.23;97372.60;1785058;78;25683;-86
2021/06/09 10:47:55;;;;;;;6.80;6.12;;;;;;;26.02;43.39;97372.63;1785980;78;27389;-83
2021/06/09 10:50:24;;;;;;;10.23;6.03;;;;;;;25.80;43.14;97365.67;1791747;79;25922;-83
2021/06/09 10:52:51;;;;;;;9.48;7.08;;;;;;;25.67;43.11;97369.28;1777593;79;25814;-83
2021/06/09 10:55:19;;;;;;;10.28;6.40;;;;;;;25.76;43.73;97367.41;1790571;78;26245;-82
2021/06/09 10:57:51;;;;;;;7.67;5.50;;;;;;;25.95;43.37;97361.75;1768750;79;25719;-84
2021/06/09 11:00:19;;;;;;;9.63;5.12;;;;;;;26.16;42.75;97354.05;1758160;79;27396;-83
2021/06/09 11:02:48;;;;;;;7.95;4.83;;;;;;;26.54;42.18;97353.14;1777466;79;25778;-81
2021/06/09 11:05:15;;;;;;;5.90;5.00;;;;;;;26.78;41.90;97356.95;1787393;78;25762;-83
2021/06/09 11:07:45;;;;;;;6.47;4.12;;;;;;;27.08;41.82;97351.73;1788452;79;26718;-82
2021/06/09 11:10:16;;;;;;;10.78;5.15;;;;;;;27.37;40.80;97347.05;1777522;79;25683;-83
2021/06/09 11:12:49;;;;;;;6.92;5.47;;;;;;;27.49;40.10;97343.91;1777684;79;27335;-82
2021/06/09 11:15:32;;;;;;;5.85;4.42;;;;;;;27.59;39.58;97335.32;1769360;79;25797;-82
2021/06/09 11:17:58;;;;;;;61.63;9.13;;;;;;;27.53;39.65;97337.95;1785360;78;25739;-81
2021/06/09 11:20:39;;;;;;;12.82;5.25;;;;;;;27.28;39.58;97339.29;1778606;79;25874;-82
2021/06/09 11:23:13;;;;;;;5.47;4.80;;;;;;;27.08;39.58;97339.27;1777728;79;25417;-82
2021/06/09 11:25:44;;;;;;;8.30;5.08;;;;;;;27.16;40.05;97335.17;1766037;79;27448;-81
2021/06/09 11:28:18;;;;;;;5.97;5.05;;;;;;;27.46;40.16;97337.62;1777212;79;25824;-81
2021/06/09 11:30:58;;;;;;;7.08;4.50;;;;;;;27.77;39.58;97327.05;1776638;79;25666;-81
2021/06/09 11:33:53;;;;;;;5.10;4.60;;;;;;;27.94;39.19;97325.66;1777558;79;25797;-83
2021/06/09 11:36:25;;;;;;;6.70;4.70;;;;;;;28.05;38.24;97320.03;1790341;78;26415;-81
2021/06/09 11:38:59;;;;;;;9.45;4.62;;;;;;;27.96;38.40;97324.19;1776954;79;27489;-83
2021/06/09 11:41:40;;;;;;;5.22;4.78;;;;;;;28.03;38.07;97322.30;1777696;80;25716;-82